createdAt,value
2023-08-25T00:00:11.834Z,28.65
2023-08-25T00:02:49.067Z,28.86
2023-08-25T00:05:18.465Z,28.79
2023-08-25T00:07:47.475Z,28.23
2023-08-25T00:10:16.569Z,28.47
2023-08-25T00:12:48.680Z,28.36
2023-08-25T00:15:18.089Z,28.23
2023-08-25T00:17:47.854Z,27.64
2023-08-25T00:20:16.820Z,27.28
2023-08-25T00:22:45.889Z,27.56
2023-08-25T00:25:15.112Z,27.12
2023-08-25T00:27:50.127Z,28.29
2023-08-25T00:30:19.296Z,28.17
2023-08-25T00:32:50.426Z,27.33
2023-08-25T00:35:19.805Z,26.99
2023-08-25T00:37:52.366Z,27.28
2023-08-25T00:40:24.338Z,27.48
2023-08-25T00:42:53.786Z,28.21
2023-08-25T00:45:30.267Z,27.32
2023-08-25T00:47:59.525Z,27.20
2023-08-25T00:50:31.218Z,28.56
2023-08-25T00:53:00.426Z,28.62
2023-08-25T00:55:29.692Z,28.81
2023-08-25T00:57:59.780Z,27.61
2023-08-25T01:00:31.417Z,27.55
2023-08-25T01:03:00.686Z,27.64
2023-08-25T01:05:32.401Z,28.33
2023-08-25T01:08:07.071Z,28.39
2023-08-25T01:10:55.951Z,28.41
2023-08-25T01:13:52.959Z,28.19
2023-08-25T01:16:32.053Z,28.10
2023-08-25T01:19:02.952Z,27.92
2023-08-25T01:21:37.501Z,27.29
2023-08-25T01:24:30.302Z,28.02
2023-08-25T01:27:00.312Z,27.70
2023-08-25T01:29:29.349Z,26.94
2023-08-25T01:31:58.622Z,26.60
2023-08-25T01:34:27.772Z,27.38
2023-08-25T01:37:14.633Z,26.55
2023-08-25T01:39:48.192Z,26.51
2023-08-25T01:42:18.604Z,26.50
2023-08-25T01:44:50.035Z,26.48
2023-08-25T01:47:27.264Z,25.72
2023-08-25T01:49:59.018Z,25.63
2023-08-25T01:52:30.677Z,25.27
2023-08-25T01:55:02.216Z,25.09
2023-08-25T01:57:32.568Z,25.47
2023-08-25T02:00:03.602Z,25.45
2023-08-25T02:02:43.912Z,25.99
2023-08-25T02:05:13.735Z,26.38
2023-08-25T02:07:42.763Z,25.46
2023-08-25T02:10:12.090Z,25.57
2023-08-25T02:12:41.090Z,24.72
2023-08-25T02:15:10.672Z,24.55
2023-08-25T02:17:41.842Z,24.46
2023-08-25T02:20:14.612Z,24.25
2023-08-25T02:22:44.221Z,24.67
2023-08-25T02:25:15.798Z,24.97
2023-08-25T02:27:44.867Z,24.30
2023-08-25T02:30:14.308Z,24.36
2023-08-25T02:32:47.331Z,24.22
2023-08-25T02:35:16.465Z,24.37
2023-08-25T02:38:03.373Z,24.21
2023-08-25T02:40:42.329Z,24.26
2023-08-25T02:43:17.762Z,24.63
2023-08-25T02:45:48.029Z,24.44
2023-08-25T02:48:17.237Z,24.39
2023-08-25T02:50:49.037Z,24.27
2023-08-25T02:53:18.460Z,24.16
2023-08-25T02:55:49.013Z,23.66
2023-08-25T02:58:18.030Z,23.85
2023-08-25T03:00:47.790Z,23.84
2023-08-25T03:03:18.460Z,23.82
2023-08-25T03:05:51.468Z,23.86
2023-08-25T03:08:22.997Z,23.58
2023-08-25T03:10:52.014Z,23.54
2023-08-25T03:13:26.888Z,23.58
2023-08-25T03:15:58.856Z,23.25
2023-08-25T03:18:29.463Z,23.28
2023-08-25T03:20:58.750Z,23.11
2023-08-25T03:23:27.824Z,23.03
2023-08-25T03:26:02.553Z,22.83
2023-08-25T03:28:31.586Z,22.58
2023-08-25T03:31:00.719Z,22.48
2023-08-25T03:33:29.839Z,22.60
2023-08-25T03:35:58.975Z,22.51
2023-08-25T03:38:28.071Z,22.50
2023-08-25T03:41:01.404Z,22.43
2023-08-25T03:43:30.427Z,22.41
2023-08-25T03:46:11.031Z,22.25
2023-08-25T03:48:39.989Z,22.07
2023-08-25T03:51:09.038Z,22.00
2023-08-25T03:53:38.403Z,22.01
2023-08-25T03:56:08.777Z,21.98
2023-08-25T03:58:38.045Z,21.88
2023-08-25T04:01:07.207Z,21.62
2023-08-25T04:03:36.295Z,21.42
2023-08-25T04:06:06.105Z,21.30
2023-08-25T04:08:35.184Z,21.06
2023-08-25T04:11:04.736Z,21.28
2023-08-25T04:13:33.691Z,21.18
2023-08-25T04:16:06.505Z,21.09
2023-08-25T04:18:36.124Z,21.10
2023-08-25T04:21:05.282Z,20.84
2023-08-25T04:23:34.300Z,20.72
2023-08-25T04:26:03.800Z,20.77
2023-08-25T04:28:33.069Z,20.74
2023-08-25T04:31:02.551Z,20.99
2023-08-25T04:33:36.092Z,20.80
2023-08-25T04:36:05.316Z,20.47
2023-08-25T04:38:34.221Z,20.15
2023-08-25T04:41:04.252Z,20.31
2023-08-25T04:43:33.456Z,20.46
2023-08-25T04:46:03.544Z,20.58
2023-08-25T04:48:32.578Z,20.27
2023-08-25T04:51:01.518Z,20.36
2023-08-25T04:53:30.629Z,20.02
2023-08-25T04:56:00.804Z,19.71
2023-08-25T04:58:29.813Z,19.67
2023-08-25T05:00:59.351Z,20.03
2023-08-25T05:03:28.882Z,19.83
2023-08-25T05:05:57.971Z,19.72
2023-08-25T05:08:28.219Z,19.71
2023-08-25T05:10:57.984Z,19.70
2023-08-25T05:13:27.673Z,19.72
2023-08-25T05:15:57.243Z,19.66
2023-08-25T05:18:43.281Z,19.64
2023-08-25T05:21:14.062Z,19.40
2023-08-25T05:23:53.790Z,19.66
2023-08-25T05:26:23.107Z,19.69
2023-08-25T05:29:01.465Z,19.57
2023-08-25T05:31:39.253Z,19.51
2023-08-25T05:37:33.594Z,19.12
2023-08-25T05:40:02.797Z,19.13
2023-08-25T05:42:35.662Z,19.31
2023-08-25T05:45:05.481Z,19.36
2023-08-25T05:47:36.749Z,19.23
2023-08-25T05:50:07.270Z,19.13
2023-08-25T05:52:36.413Z,19.09
2023-08-25T05:56:04.801Z,18.83
2023-08-25T06:03:47.402Z,18.95
2023-08-25T06:06:55.097Z,19.00
2023-08-25T06:09:38.403Z,18.97
2023-08-25T06:12:09.093Z,18.85
2023-08-25T06:14:38.117Z,18.92
2023-08-25T06:17:07.033Z,18.81
2023-08-25T06:19:38.281Z,18.87
2023-08-25T06:22:07.342Z,18.94
2023-08-25T06:24:36.287Z,18.84
2023-08-25T06:27:05.495Z,18.76
2023-08-25T06:29:34.466Z,18.69
2023-08-25T06:32:03.391Z,18.62
2023-08-25T06:34:32.349Z,18.44
2023-08-25T06:37:01.562Z,18.26
2023-08-25T06:39:30.443Z,18.24
2023-08-25T06:41:59.440Z,18.30
2023-08-25T06:44:28.344Z,18.23
2023-08-25T06:46:59.250Z,18.39
2023-08-25T06:49:29.527Z,18.50
2023-08-25T06:51:58.371Z,18.49
2023-08-25T06:54:28.691Z,18.42
2023-08-25T06:56:58.386Z,18.27
2023-08-25T06:59:29.895Z,18.26
2023-08-25T07:02:01.519Z,18.18
2023-08-25T07:04:33.051Z,18.19
2023-08-25T07:07:02.720Z,18.15
2023-08-25T07:09:31.817Z,18.15
2023-08-25T07:12:00.931Z,18.14
2023-08-25T07:14:32.819Z,18.21
2023-08-25T07:17:04.439Z,18.21
2023-08-25T07:19:33.525Z,18.14
2023-08-25T07:22:04.619Z,18.16
2023-08-25T07:24:36.693Z,18.10
2023-08-25T07:27:07.241Z,18.05
2023-08-25T07:29:39.300Z,18.05
2023-08-25T07:32:08.672Z,17.96
2023-08-25T07:34:40.336Z,17.91
2023-08-25T07:37:09.375Z,17.86
2023-08-25T07:39:38.274Z,17.87
2023-08-25T07:42:07.909Z,17.85
2023-08-25T07:44:41.259Z,17.84
2023-08-25T07:47:13.287Z,17.82
2023-08-25T07:49:45.151Z,17.73
2023-08-25T07:52:15.871Z,17.83
2023-08-25T07:54:44.941Z,17.85
2023-08-25T07:57:17.229Z,17.81
2023-08-25T07:59:46.524Z,17.82
2023-08-25T08:02:16.561Z,17.82
2023-08-25T08:04:48.819Z,17.67
2023-08-25T08:07:17.843Z,17.64
2023-08-25T08:09:47.174Z,17.78
2023-08-25T08:12:16.222Z,17.68
2023-08-25T08:14:46.734Z,17.54
2023-08-25T08:17:16.153Z,17.58
2023-08-25T08:19:45.173Z,17.53
2023-08-25T08:22:14.212Z,17.56
2023-08-25T08:24:51.054Z,17.39
2023-08-25T08:27:26.670Z,17.41
2023-08-25T08:29:55.793Z,17.60
2023-08-25T08:32:24.876Z,17.50
2023-08-25T08:34:53.942Z,17.43
2023-08-25T08:37:25.875Z,17.43
2023-08-25T08:39:54.993Z,17.48
2023-08-25T08:42:24.756Z,17.39
2023-08-25T08:44:54.425Z,17.16
2023-08-25T08:47:24.289Z,17.02
2023-08-25T08:49:53.849Z,17.35
2023-08-25T08:52:22.974Z,17.62
2023-08-25T08:54:53.588Z,17.60
2023-08-25T08:57:25.187Z,17.41
2023-08-25T08:59:55.051Z,17.15
2023-08-25T09:02:25.360Z,17.29
2023-08-25T09:04:56.778Z,17.11
2023-08-25T09:07:30.090Z,17.10
2023-08-25T09:10:00.327Z,17.32
2023-08-25T09:12:31.192Z,17.10
2023-08-25T09:15:03.316Z,17.15
2023-08-25T09:17:34.206Z,17.44
2023-08-25T09:20:08.121Z,17.35
2023-08-25T09:22:37.330Z,17.40
2023-08-25T09:25:06.917Z,17.52
2023-08-25T09:27:35.943Z,17.07
2023-08-25T09:30:07.362Z,16.89
2023-08-25T09:32:36.687Z,16.84
2023-08-25T09:35:13.628Z,17.32
2023-08-25T09:37:45.993Z,17.01
2023-08-25T09:40:23.824Z,17.09
2023-08-25T09:43:06.046Z,17.31
2023-08-25T09:45:35.437Z,17.22
2023-08-25T09:48:15.135Z,17.01
2023-08-25T09:50:45.867Z,17.03
2023-08-25T09:53:15.389Z,16.82
2023-08-25T09:55:44.869Z,16.74
2023-08-25T09:58:16.628Z,16.86
2023-08-25T10:00:46.274Z,17.04
2023-08-25T10:03:15.495Z,17.07
2023-08-25T10:05:48.042Z,17.19
2023-08-25T10:08:18.788Z,17.13
2023-08-25T10:10:48.212Z,17.05
2023-08-25T10:13:20.985Z,16.99
2023-08-25T10:15:52.117Z,17.16
2023-08-25T10:18:21.612Z,17.07
2023-08-25T10:20:51.023Z,17.01
2023-08-25T10:23:21.538Z,16.88
2023-08-25T10:25:50.772Z,17.02
2023-08-25T10:28:20.266Z,17.12
2023-08-25T10:30:49.527Z,17.13
2023-08-25T10:33:21.447Z,16.95
2023-08-25T10:35:51.544Z,16.97
2023-08-25T10:38:20.717Z,16.76
2023-08-25T10:40:52.203Z,16.64
2023-08-25T10:43:34.053Z,16.68
2023-08-25T10:46:07.695Z,16.67
2023-08-25T10:48:37.850Z,16.74
2023-08-25T10:51:14.985Z,16.60
2023-08-25T10:53:49.878Z,16.76
2023-08-25T10:56:23.898Z,16.69
2023-08-25T10:59:06.597Z,16.79
2023-08-25T11:01:39.452Z,16.53
2023-08-25T11:04:14.855Z,16.28
2023-08-25T11:06:49.294Z,16.40
2023-08-25T11:09:22.416Z,16.69
2023-08-25T11:11:58.995Z,16.32
2023-08-25T11:14:31.427Z,16.47
2023-08-25T11:17:01.176Z,16.46
2023-08-25T11:19:32.369Z,16.49
2023-08-25T11:22:07.492Z,16.63
2023-08-25T11:24:36.792Z,16.55
2023-08-25T11:27:11.202Z,16.50
2023-08-25T11:29:51.279Z,16.33
2023-08-25T11:32:20.483Z,16.38
2023-08-25T11:34:51.896Z,16.53
2023-08-25T11:37:22.790Z,16.58
2023-08-25T11:39:51.800Z,16.46
2023-08-25T11:42:26.661Z,16.27
2023-08-25T11:44:56.032Z,16.02
2023-08-25T11:47:25.249Z,15.65
2023-08-25T11:49:56.156Z,16.05
2023-08-25T11:52:25.325Z,16.20
2023-08-25T11:54:54.868Z,16.10
2023-08-25T11:57:35.597Z,16.23
2023-08-25T12:00:07.323Z,16.23
2023-08-25T12:02:39.613Z,16.05
2023-08-25T12:05:12.066Z,16.12
2023-08-25T12:07:43.068Z,15.92
2023-08-25T12:10:12.120Z,15.88
2023-08-25T12:12:41.512Z,16.01
2023-08-25T12:15:11.041Z,16.12
2023-08-25T12:17:44.245Z,16.09
2023-08-25T12:20:15.542Z,16.00
2023-08-25T12:23:01.141Z,16.06
2023-08-25T12:25:34.501Z,15.97
2023-08-25T12:28:04.137Z,16.05
2023-08-25T12:30:33.187Z,16.10
2023-08-25T12:33:03.127Z,15.95
2023-08-25T12:35:32.331Z,16.00
2023-08-25T12:38:01.312Z,16.02
2023-08-25T12:40:30.438Z,15.88
2023-08-25T12:42:59.350Z,15.87
2023-08-25T12:45:28.369Z,15.80
2023-08-25T12:47:57.847Z,15.95
2023-08-25T12:50:27.155Z,15.91
2023-08-25T12:52:56.388Z,15.87
2023-08-25T12:55:25.508Z,15.83
2023-08-25T12:57:57.586Z,15.87
2023-08-25T13:00:27.242Z,15.84
2023-08-25T13:02:57.288Z,15.77
2023-08-25T13:05:27.139Z,15.73
2023-08-25T13:07:56.718Z,15.67
2023-08-25T13:10:26.974Z,15.67
2023-08-25T13:12:56.057Z,15.57
2023-08-25T13:15:25.158Z,15.53
2023-08-25T13:17:54.594Z,15.54
2023-08-25T13:20:23.762Z,15.53
2023-08-25T13:22:52.782Z,15.46
2023-08-25T13:25:21.722Z,15.33
2023-08-25T13:27:50.769Z,15.29
2023-08-25T13:30:19.797Z,15.46
2023-08-25T13:32:48.789Z,15.47
2023-08-25T13:35:17.780Z,15.39
2023-08-25T13:37:46.882Z,15.43
2023-08-25T13:40:15.882Z,15.49
2023-08-25T13:42:44.989Z,15.48
2023-08-25T13:45:14.030Z,15.46
2023-08-25T13:47:43.087Z,15.41
2023-08-25T13:50:12.456Z,15.25
2023-08-25T13:52:41.599Z,15.41
2023-08-25T13:55:11.553Z,15.42
2023-08-25T13:57:40.883Z,15.31
2023-08-25T14:00:13.377Z,15.22
2023-08-25T14:02:48.281Z,14.97
2023-08-25T14:05:19.823Z,14.94
2023-08-25T14:07:51.061Z,15.01
2023-08-25T14:10:20.078Z,15.09
2023-08-25T14:12:49.021Z,15.08
2023-08-25T14:15:18.147Z,15.19
2023-08-25T14:17:47.140Z,15.37
2023-08-25T14:20:16.226Z,15.43
2023-08-25T14:22:45.100Z,15.51
2023-08-25T14:25:14.156Z,15.64
2023-08-25T14:27:43.210Z,15.76
2023-08-25T14:30:14.755Z,15.71
2023-08-25T14:32:46.840Z,15.74
2023-08-25T14:35:16.018Z,15.70
2023-08-25T14:37:48.075Z,16.11
2023-08-25T14:40:17.103Z,15.90
2023-08-25T14:42:48.883Z,15.95
2023-08-25T14:45:20.020Z,16.09
2023-08-25T14:47:49.001Z,16.29
2023-08-25T14:50:19.943Z,16.28
2023-08-25T14:52:48.930Z,15.88
2023-08-25T14:55:21.001Z,15.94
2023-08-25T14:57:50.220Z,15.89
2023-08-25T15:00:19.710Z,16.01
2023-08-25T15:02:49.551Z,16.07
2023-08-25T15:05:22.009Z,16.30
2023-08-25T15:07:51.009Z,16.17
2023-08-25T15:10:21.047Z,16.44
2023-08-25T15:12:50.129Z,16.57
2023-08-25T15:15:19.019Z,16.55
2023-08-25T15:17:48.299Z,16.50
2023-08-25T15:20:18.080Z,16.49
2023-08-25T15:22:47.061Z,16.73
2023-08-25T15:25:16.118Z,16.55
2023-08-25T15:27:45.197Z,16.47
2023-08-25T15:30:20.143Z,16.55
2023-08-25T15:32:49.824Z,16.68
2023-08-25T15:35:21.442Z,16.93
2023-08-25T15:37:52.092Z,17.01
2023-08-25T15:40:22.967Z,16.88
2023-08-25T15:42:52.136Z,16.73
2023-08-25T15:45:21.055Z,16.86
2023-08-25T15:47:50.079Z,16.94
2023-08-25T15:50:19.162Z,17.06
2023-08-25T15:52:48.145Z,16.98
2023-08-25T15:55:17.240Z,17.03
2023-08-25T15:57:46.253Z,17.13
2023-08-25T16:00:17.107Z,17.21
2023-08-25T16:02:47.848Z,17.20
2023-08-25T16:05:16.874Z,17.08
2023-08-25T16:07:45.895Z,17.10
2023-08-25T16:10:14.961Z,17.26
2023-08-25T16:12:44.146Z,17.52
2023-08-25T16:15:13.544Z,17.57
2023-08-25T16:17:44.161Z,17.69
2023-08-25T16:20:13.666Z,17.84
2023-08-25T16:22:42.569Z,17.90
2023-08-25T16:25:13.249Z,17.91
2023-08-25T16:27:45.310Z,18.03
2023-08-25T16:30:14.894Z,17.95
2023-08-25T16:32:43.870Z,18.11
2023-08-25T16:35:12.995Z,17.98
2023-08-25T16:37:41.937Z,17.96
2023-08-25T16:40:12.978Z,18.14
2023-08-25T16:42:42.092Z,18.13
2023-08-25T16:45:11.573Z,18.19
2023-08-25T16:47:41.087Z,18.01
2023-08-25T16:50:10.949Z,18.19
2023-08-25T16:52:40.078Z,18.14
2023-08-25T16:55:13.769Z,18.34
2023-08-25T16:57:43.588Z,18.37
2023-08-25T17:00:14.173Z,18.38
2023-08-25T17:02:47.227Z,18.31
2023-08-25T17:05:24.146Z,18.14
2023-08-25T17:07:53.476Z,18.34
2023-08-25T17:10:23.290Z,18.42
2023-08-25T17:12:54.921Z,18.51
2023-08-25T17:15:26.181Z,18.54
2023-08-25T17:17:55.239Z,18.54
2023-08-25T17:20:24.442Z,18.49
2023-08-25T17:22:57.687Z,18.66
2023-08-25T17:25:26.816Z,18.68
2023-08-25T17:27:57.023Z,18.74
2023-08-25T17:30:26.322Z,18.84
2023-08-25T17:32:55.614Z,18.76
2023-08-25T17:35:27.666Z,18.85
2023-08-25T17:37:56.664Z,18.82
2023-08-25T17:40:25.624Z,18.85
2023-08-25T17:42:55.034Z,18.71
2023-08-25T17:45:24.328Z,18.86
2023-08-25T17:47:53.286Z,18.69
2023-08-25T17:50:22.285Z,18.87
2023-08-25T17:52:51.198Z,18.94
2023-08-25T17:55:20.189Z,19.06
2023-08-25T17:57:49.152Z,19.17
2023-08-25T18:00:18.324Z,19.24
2023-08-25T18:02:49.534Z,19.24
2023-08-25T18:05:18.641Z,19.16
2023-08-25T18:07:47.763Z,19.26
2023-08-25T18:10:16.898Z,19.34
2023-08-25T18:12:45.848Z,19.57
2023-08-25T18:15:14.741Z,19.74
2023-08-25T18:17:43.806Z,19.62
2023-08-25T18:20:13.289Z,19.82
2023-08-25T18:22:42.218Z,19.78
2023-08-25T18:25:11.215Z,20.05
2023-08-25T18:27:43.594Z,20.12
2023-08-25T18:30:13.100Z,20.23
2023-08-25T18:32:44.899Z,20.24
2023-08-25T18:35:13.976Z,20.20
2023-08-25T18:37:44.393Z,20.29
2023-08-25T18:40:13.487Z,20.31
2023-08-25T18:42:42.408Z,20.07
2023-08-25T18:45:11.899Z,20.07
2023-08-25T18:47:40.816Z,19.75
2023-08-25T18:50:15.002Z,19.73
2023-08-25T18:52:44.033Z,19.84
2023-08-25T18:55:12.908Z,19.85
2023-08-25T18:57:42.099Z,19.89
2023-08-25T19:00:12.536Z,19.86
2023-08-25T19:02:41.753Z,19.83
2023-08-25T19:05:11.002Z,19.83
2023-08-25T19:07:40.241Z,19.54
2023-08-25T19:10:10.024Z,19.72
2023-08-25T19:12:39.166Z,19.81
2023-08-25T19:15:08.664Z,19.66
2023-08-25T19:17:37.747Z,19.62
2023-08-25T19:20:11.063Z,19.30
2023-08-25T19:22:41.297Z,19.36
2023-08-25T19:25:10.892Z,19.78
2023-08-25T19:27:40.194Z,19.86
2023-08-25T19:30:10.062Z,19.98
2023-08-25T19:32:42.525Z,20.13
2023-08-25T19:35:11.827Z,20.17
2023-08-25T19:37:40.696Z,20.19
2023-08-25T19:41:28.941Z,20.21
2023-08-25T19:47:59.264Z,20.94
2023-08-25T19:50:31.435Z,21.14
2023-08-25T19:53:03.695Z,21.48
2023-08-25T19:55:32.874Z,21.93
2023-08-25T19:58:01.803Z,22.28
2023-08-25T20:00:33.634Z,22.51
2023-08-25T20:03:05.792Z,22.68
2023-08-25T20:05:41.356Z,22.92
2023-08-25T20:08:14.583Z,22.81
2023-08-25T20:10:44.665Z,23.12
2023-08-25T20:13:14.602Z,23.18
2023-08-25T20:15:44.454Z,23.17
2023-08-25T20:18:14.655Z,23.26
2023-08-25T20:20:47.263Z,23.49
2023-08-25T20:23:26.158Z,23.39
2023-08-25T20:25:56.701Z,23.67
2023-08-25T20:28:27.128Z,23.72
2023-08-25T20:30:57.123Z,23.66
2023-08-25T20:33:27.236Z,23.70
2023-08-25T20:36:00.530Z,23.95
2023-08-25T20:38:30.695Z,24.19
2023-08-25T20:41:02.651Z,24.32
2023-08-25T20:43:34.571Z,24.79
2023-08-25T20:46:20.553Z,24.81
2023-08-25T20:48:53.853Z,24.69
2023-08-25T20:51:28.898Z,24.94
2023-08-25T20:53:59.336Z,25.30
2023-08-25T20:56:32.222Z,25.54
2023-08-25T20:59:02.387Z,25.71
2023-08-25T21:01:32.564Z,25.80
2023-08-25T21:04:02.635Z,25.85
2023-08-25T21:06:35.450Z,26.16
2023-08-25T21:09:06.329Z,26.25
2023-08-25T21:11:36.388Z,26.42
2023-08-25T21:14:06.733Z,26.60
2023-08-25T21:16:40.147Z,26.65
2023-08-25T21:19:11.831Z,26.76
2023-08-25T21:21:43.066Z,27.13
2023-08-25T21:24:13.392Z,27.24
2023-08-25T21:26:44.523Z,27.23
2023-08-25T21:29:14.813Z,27.30
2023-08-25T21:31:45.159Z,27.86
2023-08-25T21:34:15.090Z,28.04
2023-08-25T21:36:44.445Z,28.02
2023-08-25T21:39:13.463Z,28.32
2023-08-25T21:41:45.219Z,28.44
2023-08-25T21:44:14.296Z,28.74
2023-08-25T21:46:43.235Z,29.03
2023-08-25T21:49:12.284Z,29.13
2023-08-25T21:51:41.244Z,28.84
2023-08-25T21:54:10.234Z,29.30
2023-08-25T21:56:44.316Z,29.42
2023-08-25T21:59:13.425Z,29.71
2023-08-25T22:01:42.509Z,29.79
2023-08-25T22:04:12.764Z,29.82
2023-08-25T22:06:42.127Z,29.90
2023-08-25T22:09:12.139Z,30.00
2023-08-25T22:11:41.172Z,30.20
2023-08-25T22:14:10.063Z,30.21
2023-08-25T22:16:39.732Z,30.19
2023-08-25T22:19:08.775Z,30.19
2023-08-25T22:21:38.338Z,30.43
2023-08-25T22:24:08.559Z,30.19
2023-08-25T22:26:40.538Z,30.49
2023-08-25T22:29:09.565Z,30.68
2023-08-25T22:31:38.568Z,30.76
2023-08-25T22:36:47.281Z,30.84
2023-08-25T22:39:17.520Z,30.94
2023-08-25T22:41:46.818Z,31.09
2023-08-25T22:44:15.962Z,31.28
2023-08-25T22:46:45.300Z,31.37
2023-08-25T22:49:16.671Z,31.31
2023-08-25T22:51:45.885Z,31.37
2023-08-25T22:54:17.736Z,31.26
2023-08-25T22:56:50.399Z,31.43
2023-08-25T22:59:19.515Z,31.47
2023-08-25T23:01:50.584Z,31.31
2023-08-25T23:04:20.573Z,31.17
2023-08-25T23:06:49.947Z,31.09
2023-08-25T23:09:24.119Z,30.64
2023-08-25T23:11:55.294Z,30.45
2023-08-25T23:14:24.312Z,30.27
2023-08-25T23:16:53.352Z,29.83
2023-08-25T23:19:28.958Z,29.80
2023-08-25T23:21:58.006Z,29.73
2023-08-25T23:24:27.053Z,29.64
2023-08-25T23:26:56.048Z,30.14
2023-08-25T23:29:25.000Z,30.41
2023-08-25T23:31:54.490Z,30.63
2023-08-25T23:34:23.818Z,30.74
2023-08-25T23:36:52.760Z,30.88
2023-08-25T23:39:21.676Z,30.96
2023-08-25T23:41:50.913Z,30.73
2023-08-25T23:44:19.851Z,30.49
2023-08-25T23:46:48.739Z,30.44
2023-08-25T23:49:17.901Z,30.73
2023-08-25T23:51:46.884Z,30.86
2023-08-25T23:54:15.986Z,31.00
2023-08-25T23:56:45.008Z,31.15
2023-08-25T23:59:14.027Z,31.05
